Home > Products > Valid Products > TAF

000
FTUS42 KMHX 020500 RRA
TAFEWN
TAF
KEWN 020548Z 0206/0306 22006KT P6SM SKC
     FM020900 22003KT 5SM BR SCT200
     FM021200 24007KT P6SM SCT050=



000
FTUS42 KMHX 012300
TAFEWN
TAF
KEWN 012332Z 0200/0224 20005KT P6SM SCT050 SCT200
     FM020900 22003KT 5SM BR SCT200
     FM021200 24007KT P6SM SCT050=



000
FTUS42 KMHX 011700
TAFEWN
TAF
KEWN 011738Z 0118/0218 24006KT P6SM SCT050 SCT250
     FM020000 20005KT P6SM SCT050 SCT200
     FM020900 22002KT 5SM BR SCT250
     FM021230 24006KT P6SM SCT050=



000
FTUS42 KMHX 011100
TAFEWN
TAF
KEWN 011133Z 0112/0212 00000KT P6SM SKC
     FM011500 24006KT P6SM SCT040=



000
FTUS42 KMHX 010500 RRA
TAFEWN
TAF
KEWN 010552Z 0106/0206 00000KT P6SM SKC
      TEMPO 0109/0112 4SM BR SCT005
     FM011500 24006KT P6SM SCT040=



000
FTUS42 KMHX 312300
TAFEWN
TAF
KEWN 312339Z 0100/0124 18004KT P6SM SKC
     FM010600 18002KT 5SM BR SCT005
     FM011200 24006KT P6SM SCT040
      TEMPO 0118/0121 BKN040=



000
FTUS42 KMHX 311700
TAFEWN
TAF
KEWN 311734Z 3118/0118 17008KT P6SM SCT040
     FM010100 20004KT P6SM SKC
     FM010900 22002KT 5SM BR SCT005
     FM011200 24006KT P6SM SCT040=



000
FTUS42 KMHX 311100
TAFEWN
TAF
KEWN 311140Z 3112/0112 17008KT P6SM SCT040
     FM010100 19004KT P6SM SKC
     FM010900 00000KT 5SM BR SCT003=



000
FTUS42 KMHX 311000 AAA
TAFEWN
TAF AMD
KEWN 311035Z 3111/0106 00000KT 1SM BR BKN003
     FM311200 17008KT P6SM SCT040
     FM010100 19004KT P6SM SKC=



000
FTUS42 KMHX 310500
TAFEWN
TAF
KEWN 310540Z 3106/0106 18002KT P6SM SKC
     FM310900 00000KT 4SM BR SCT005
     FM311200 17008KT P6SM SCT040
     FM010100 19004KT P6SM SKC=



000
FTUS42 KMHX 302300
TAFEWN
TAF
KEWN 302326Z 3100/3124 18003KT P6SM FEW035
     FM310700 19002KT 3SM BR SCT005
     FM311300 18007KT P6SM SCT040=



000
FTUS42 KMHX 301700
TAFEWN
TAF
KEWN 301720Z 3018/3118 13005KT P6SM SCT050
     FM310100 16004KT P6SM SKC
     FM310800 00000KT 4SM BR SCT250
     FM311300 20005KT P6SM FEW250=



000
FTUS42 KMHX 301100
TAFEWN
TAF
KEWN 301120Z 3012/3112 00000KT P6SM BKN070
     FM301300 13007KT P6SM SCT040
     FM310100 16004KT P6SM SKC=



    US Dept of Commerce
    National Oceanic and Atmospheric Administration
    National Weather Service
    1325 East West Highway
    Silver Spring, MD 20910
    Page Author: NWS Internet Services Team
Disclaimer
Information Quality
Credits
Glossary
Privacy Policy
Freedom of Information Act (FOIA)
About Us
Career Opportunities